Time;durP1;ratioP1;P1;durP2;ratioP2;P2;SDS_P1;SDS_P2;PMS_P1;PMS_P2;Temp;Humidity;BMP_temperature;BMP_pressure;BME280_temperature;BME280_humidity;BME280_pressure;Samples;Min_cycle;Max_cycle;Signal;HPM_P1;HPM_P2
2022/03/27 00:48:15;;;;;;;23.10;14.33;;;;;;;8.55;45.37;97765.50;6161916;23;20021;-80
2022/03/27 00:50:43;;;;;;;27.48;15.60;;;;;;;8.59;44.70;97764.28;6186544;23;20025;-80
2022/03/27 00:53:11;;;;;;;24.55;15.65;;;;;;;8.53;44.46;97761.41;6186034;23;20017;-80
2022/03/27 00:55:39;;;;;;;28.40;15.93;;;;;;;8.45;44.93;97767.28;6186499;23;20370;-80
2022/03/27 00:58:08;;;;;;;30.15;15.38;;;;;;;8.41;45.04;97760.72;6185918;23;20018;-81
2022/03/27 01:00:51;;;;;;;26.83;16.05;;;;;;;8.42;45.55;97762.38;6186703;23;20353;-80
2022/03/27 04:34:33;;;;;;;19.83;12.60;;;;;;;7.05;48.87;97719.06;6107095;23;20114;-80
2022/03/27 04:37:03;;;;;;;23.33;12.57;;;;;;;7.15;49.13;97720.72;6185705;23;20021;-79
2022/03/27 04:39:30;;;;;;;24.38;13.23;;;;;;;7.26;48.29;97726.75;6186924;23;20021;-80
2022/03/27 04:41:58;;;;;;;29.42;14.43;;;;;;;7.28;48.33;97725.69;6186562;23;20036;-79
2022/03/27 04:44:25;;;;;;;22.42;13.20;;;;;;;7.22;48.04;97718.41;6185882;23;20017;-80
2022/03/27 06:00:12;;;;;;;23.85;12.57;;;;;;;7.21;48.78;97750.50;6172226;23;20072;-85
2022/03/27 06:02:41;;;;;;;27.58;13.38;;;;;;;7.26;48.29;97753.53;6192803;23;20032;-85
2022/03/27 06:05:11;;;;;;;25.27;14.45;;;;;;;7.26;48.83;97753.53;6193090;23;20017;-85
2022/03/27 06:07:45;;;;;;;22.08;13.40;;;;;;;7.18;48.98;97750.78;6192940;23;20021;-89
2022/03/27 06:10:15;;;;;;;25.80;13.55;;;;;;;7.05;48.76;97747.59;6192708;23;20021;-88
2022/03/27 06:12:45;;;;;;;22.50;13.27;;;;;;;6.96;49.03;97749.19;6192403;23;20017;-85
2022/03/27 06:47:42;;;;;;;21.43;12.87;;;;;;;7.76;49.67;97760.44;6097501;23;20045;-85
2022/03/27 06:50:10;;;;;;;22.65;13.48;;;;;;;7.87;49.11;97765.53;6188428;23;20021;-82
2022/03/27 06:52:40;;;;;;;26.35;13.38;;;;;;;8.01;49.15;97769.50;6188528;23;20453;-82
2022/03/27 06:55:09;;;;;;;22.00;14.48;;;;;;;8.15;48.23;97763.06;6188509;23;20017;-89
2022/03/27 06:57:39;;;;;;;24.45;13.45;;;;;;;8.29;48.56;97762.66;6188986;23;20025;-83
2022/03/27 09:51:04;;;;;;;24.95;9.35;;;;;;;25.64;17.31;97753.66;6166584;22;20012;-80
2022/03/27 10:12:54;;;;;;;16.02;9.18;;;;;;;28.73;14.43;97753.09;6213941;22;20020;-84
2022/03/27 10:15:29;;;;;;;15.13;9.13;;;;;;;28.61;14.33;97747.22;6214112;22;20009;-81
2022/03/27 10:20:37;;;;;;;13.77;9.40;;;;;;;28.84;14.84;97745.00;6169601;22;20019;-82
2022/03/27 10:23:08;;;;;;;15.30;9.57;;;;;;;29.19;14.04;97737.97;6214341;22;20073;-83
2022/03/27 10:25:44;;;;;;;14.50;8.85;;;;;;;29.32;13.33;97740.06;6214412;22;20028;-82
2022/03/27 10:39:35;;;;;;;14.45;7.72;;;;;;;30.92;12.12;97727.91;6215848;23;19916;-84
2022/03/27 10:50:45;;;;;;;13.25;8.40;;;;;;;33.00;11.28;97723.50;6176831;23;19909;-83
2022/03/27 11:23:04;;;;;;;14.63;9.07;;;;;;;36.96;8.67;97703.47;6183645;22;20012;-81
2022/03/27 11:25:49;;;;;;;12.63;8.85;;;;;;;36.94;8.76;97700.28;6214418;22;20013;-80
2022/03/27 11:28:17;;;;;;;13.82;8.35;;;;;;;37.12;8.51;97693.63;6213644;22;20005;-80
2022/03/27 11:31:32;;;;;;;15.15;9.02;;;;;;;37.20;8.99;97690.06;6213633;22;20005;-81
2022/03/27 11:34:20;;;;;;;14.70;9.50;;;;;;;37.35;8.56;97685.16;6213591;22;20064;-81
2022/03/27 11:37:33;;;;;;;14.32;9.60;;;;;;;37.07;8.55;97681.00;6213568;22;20001;-84
2022/03/27 11:41:01;;;;;;;15.85;9.88;;;;;;;37.22;8.91;97676.16;6214323;22;20012;-83
2022/03/27 11:55:54;;;;;;;12.20;9.38;;;;;;;35.88;9.25;97667.16;6185011;23;19952;-81
2022/03/27 12:05:03;;;;;;;14.98;9.02;;;;;;;34.08;9.63;97658.94;6200044;22;20028;-82
2022/03/27 12:10:45;;;;;;;17.20;9.05;;;;;;;32.86;11.46;97642.41;6213492;22;20028;-82
2022/03/27 12:13:29;;;;;;;16.27;8.80;;;;;;;32.16;11.56;97635.31;6143566;22;20014;-82
2022/03/27 12:43:21;;;;;;;17.25;8.73;;;;;;;23.40;18.61;97622.88;6212345;22;20048;-79
2022/03/27 12:45:56;;;;;;;13.45;8.70;;;;;;;23.31;18.91;97607.50;6214742;22;20023;-81
2022/03/27 13:06:20;;;;;;;14.93;8.20;;;;;;;22.52;19.76;97605.41;6198849;23;20037;-79
2022/03/27 13:09:28;;;;;;;15.07;8.32;;;;;;;22.33;19.81;97604.75;6135303;23;20027;-80
2022/03/27 13:12:00;;;;;;;14.05;7.80;;;;;;;22.16;19.76;97602.75;6213553;22;20001;-79
2022/03/27 13:26:03;;;;;;;13.88;8.50;;;;;;;21.64;20.89;97593.81;6210585;22;20008;-79
2022/03/27 13:31:44;;;;;;;11.55;7.45;;;;;;;21.72;21.91;97578.34;6211472;22;20031;-80
2022/03/27 13:55:39;;;;;;;16.02;8.50;;;;;;;21.36;22.18;97576.63;6147806;23;20010;-82
2022/03/27 14:04:24;;;;;;;10.93;7.63;;;;;;;21.27;22.37;97562.88;6149501;23;20012;-80
2022/03/27 14:07:00;;;;;;;13.88;7.93;;;;;;;21.26;22.23;97561.25;6210962;22;20016;-80
2022/03/27 14:18:34;;;;;;;14.23;8.20;;;;;;;21.10;22.84;97562.72;6210316;22;20001;-80
2022/03/27 14:21:11;;;;;;;13.85;7.30;;;;;;;21.04;23.19;97546.91;6214470;22;20025;-79
2022/03/27 14:38:40;;;;;;;14.43;8.68;;;;;;;20.80;22.15;97546.00;6204744;22;20096;-79
2022/03/27 14:49:17;;;;;;;13.23;7.60;;;;;;;20.60;22.98;97539.09;6183039;23;20009;-79
2022/03/27 14:51:59;;;;;;;12.88;7.18;;;;;;;20.65;23.03;97533.13;6213359;22;20005;-79
2022/03/27 15:06:13;;;;;;;13.27;7.38;;;;;;;20.40;22.71;97538.47;6126615;22;20009;-81
2022/03/27 15:12:12;;;;;;;11.88;6.72;;;;;;;20.29;23.23;97532.06;6134715;22;21482;-81
2022/03/27 15:15:11;;;;;;;11.43;7.47;;;;;;;20.30;23.02;97525.75;6170779;22;20005;-83
2022/03/27 15:37:52;;;;;;;9.63;6.30;;;;;;;20.22;23.25;97515.44;6188530;23;20027;-80
2022/03/27 15:40:33;;;;;;;11.77;7.45;;;;;;;20.19;23.14;97511.41;6213007;22;20045;-79
2022/03/27 15:43:11;;;;;;;10.05;6.88;;;;;;;20.16;23.10;97515.31;6212644;22;20057;-79
2022/03/27 15:45:51;;;;;;;13.20;6.82;;;;;;;20.12;23.02;97508.03;6212728;22;20025;-79
2022/03/27 15:48:25;;;;;;;10.70;6.80;;;;;;;20.04;22.69;97510.97;6181806;23;20029;-79
2022/03/27 15:56:33;;;;;;;9.45;5.93;;;;;;;19.89;23.44;97508.66;6188054;22;20019;-79
2022/03/27 16:01:50;;;;;;;12.47;7.47;;;;;;;19.87;24.02;97502.78;6090219;23;20003;-78
2022/03/27 16:04:20;;;;;;;14.52;7.32;;;;;;;19.82;24.62;97494.69;6188451;23;20008;-79
2022/03/27 16:06:49;;;;;;;14.95;7.38;;;;;;;19.79;24.56;97493.28;6213190;23;20011;-79
2022/03/27 16:09:20;;;;;;;13.75;6.90;;;;;;;19.75;24.54;97503.50;6213586;23;20005;-80
2022/03/27 16:11:50;;;;;;;13.68;7.80;;;;;;;19.72;24.69;97503.94;6188098;23;20005;-79
2022/03/27 16:14:24;;;;;;;17.77;8.18;;;;;;;19.69;24.64;97499.06;6214090;23;20021;-79
2022/03/27 16:16:57;;;;;;;20.70;8.35;;;;;;;19.64;24.61;97495.44;6212442;23;20027;-79
2022/03/27 16:24:56;;;;;;;15.95;7.43;;;;;;;19.55;24.36;97508.13;6182709;23;20050;-81
2022/03/27 16:27:26;;;;;;;13.52;6.65;;;;;;;19.55;25.81;97502.84;6194291;23;20017;-72
2022/03/27 16:29:56;;;;;;;27.13;17.50;;;;;;;19.54;25.45;97499.34;6187235;23;20024;-70
2022/03/27 16:32:25;;;;;;;12.63;7.47;;;;;;;19.51;24.92;97496.34;6194829;23;20052;-79
2022/03/27 16:34:54;;;;;;;16.25;6.53;;;;;;;19.49;25.26;97507.16;6209451;23;20021;-80
2022/03/27 16:37:24;;;;;;;12.18;6.55;;;;;;;19.49;24.90;97503.69;6209034;23;20055;-80
2022/03/27 16:39:53;;;;;;;11.75;6.78;;;;;;;19.46;25.24;97501.47;6185185;23;20005;-79
2022/03/27 16:42:22;;;;;;;13.60;6.88;;;;;;;19.43;25.16;97497.44;6184927;23;20040;-80
2022/03/27 16:44:52;;;;;;;12.90;7.50;;;;;;;19.40;25.51;97495.22;6185453;23;20013;-80
2022/03/27 16:47:23;;;;;;;16.30;7.80;;;;;;;19.39;25.59;97500.72;6185080;23;20060;-80
2022/03/27 16:49:52;;;;;;;9.93;6.95;;;;;;;19.35;25.68;97493.22;6185115;23;20017;-80
2022/03/27 16:52:22;;;;;;;15.85;6.97;;;;;;;19.31;25.87;97502.63;6185154;23;20044;-81
2022/03/27 16:54:50;;;;;;;11.40;7.55;;;;;;;19.29;25.79;97490.63;6185181;23;20037;-80
2022/03/27 16:57:18;;;;;;;12.63;7.15;;;;;;;19.26;25.86;97497.16;6184762;23;20036;-79
2022/03/27 16:59:48;;;;;;;13.60;6.75;;;;;;;19.24;25.90;97499.22;6185335;23;20032;-79
2022/03/27 17:02:21;;;;;;;12.88;7.03;;;;;;;19.21;26.00;97502.28;6184889;23;20064;-80
2022/03/27 17:04:50;;;;;;;12.13;7.00;;;;;;;19.17;26.02;97506.38;6185059;23;20006;-81
2022/03/27 17:07:19;;;;;;;13.52;6.93;;;;;;;19.14;26.36;97501.53;6184753;23;20009;-80
2022/03/27 17:09:48;;;;;;;14.55;6.70;;;;;;;19.12;26.40;97511.50;6184482;23;20010;-80
2022/03/27 17:12:18;;;;;;;13.07;6.95;;;;;;;19.08;26.40;97503.16;6184602;23;20018;-79
2022/03/27 17:14:47;;;;;;;17.83;7.75;;;;;;;19.06;26.48;97501.78;6184914;23;20026;-79
2022/03/27 17:17:15;;;;;;;15.98;7.50;;;;;;;19.02;26.52;97509.34;6184300;23;20005;-80
2022/03/27 17:19:46;;;;;;;13.25;7.60;;;;;;;18.98;26.87;97518.72;6184978;23;20058;-80
2022/03/27 17:22:15;;;;;;;12.15;6.95;;;;;;;18.93;27.04;97506.13;6185051;23;20073;-80
2022/03/27 17:24:44;;;;;;;15.45;6.93;;;;;;;18.90;27.04;97511.03;6184784;23;20011;-79
2022/03/27 17:27:15;;;;;;;14.68;7.43;;;;;;;18.85;27.41;97505.59;6183935;23;20001;-80
2022/03/27 17:29:44;;;;;;;16.25;8.77;;;;;;;18.80;27.86;97511.47;6184868;23;20040;-80
2022/03/27 17:32:19;;;;;;;18.17;9.57;;;;;;;18.74;27.98;97507.03;6184906;23;20025;-80
2022/03/27 17:34:53;;;;;;;17.85;10.55;;;;;;;18.67;28.36;97511.50;6184760;23;20013;-80
2022/03/27 17:37:21;;;;;;;18.10;8.85;;;;;;;18.58;28.54;97510.13;6184469;23;20032;-79
2022/03/27 17:39:51;;;;;;;13.15;8.13;;;;;;;18.48;29.33;97502.69;6184535;23;20056;-80
2022/03/27 17:42:20;;;;;;;14.30;7.63;;;;;;;18.40;29.52;97506.34;6184898;23;20009;-80
2022/03/27 17:44:48;;;;;;;14.15;8.80;;;;;;;18.32;29.87;97504.78;6184777;23;20006;-80
2022/03/27 17:47:17;;;;;;;15.02;8.23;;;;;;;18.24;30.00;97509.47;6184311;23;20073;-80
2022/03/27 17:49:46;;;;;;;10.27;6.90;;;;;;;18.15;30.58;97508.06;6184386;23;20008;-80
2022/03/27 17:52:17;;;;;;;11.23;6.95;;;;;;;18.02;31.00;97509.72;6184332;23;20111;-80
2022/03/27 17:54:46;;;;;;;14.60;6.50;;;;;;;17.92;31.06;97519.91;6184834;23;20005;-79
2022/03/27 17:57:15;;;;;;;13.05;6.88;;;;;;;17.78;31.25;97513.81;6184097;23;20235;-80
2022/03/27 17:59:45;;;;;;;11.68;6.10;;;;;;;17.67;31.31;97523.16;6184324;23;20001;-80
2022/03/27 18:02:14;;;;;;;12.88;6.57;;;;;;;17.56;31.38;97523.75;6184704;23;20007;-80
2022/03/27 18:04:44;;;;;;;13.40;7.13;;;;;;;17.40;31.64;97524.16;6184466;23;20056;-79
2022/03/27 18:07:14;;;;;;;12.23;6.65;;;;;;;17.24;31.88;97530.63;6184284;23;20021;-80
2022/03/27 18:09:45;;;;;;;12.52;7.35;;;;;;;17.09;32.24;97536.09;6184145;23;20029;-80
2022/03/27 18:12:18;;;;;;;16.75;6.68;;;;;;;16.95;32.84;97526.56;6183952;23;20061;-79
2022/03/27 18:14:47;;;;;;;12.63;6.70;;;;;;;16.81;32.78;97533.59;6183604;23;20005;-79
2022/03/27 18:17:16;;;;;;;12.35;6.45;;;;;;;16.73;33.35;97534.56;6183529;23;20005;-79
2022/03/27 18:19:45;;;;;;;10.98;6.93;;;;;;;16.64;33.39;97543.66;6184041;23;20073;-79
2022/03/27 18:22:13;;;;;;;14.65;7.03;;;;;;;16.53;33.53;97544.19;6183813;23;20061;-79
2022/03/27 18:24:43;;;;;;;12.95;7.32;;;;;;;16.40;33.74;97544.97;6184084;23;20065;-80
2022/03/27 18:27:13;;;;;;;12.70;7.82;;;;;;;16.23;34.30;97547.91;6183562;23;20005;-79
2022/03/27 18:29:41;;;;;;;10.07;6.18;;;;;;;16.09;34.52;97548.03;6183855;23;20033;-79
2022/03/27 18:32:09;;;;;;;13.40;6.85;;;;;;;16.01;34.85;97549.81;6183436;23;20048;-80
2022/03/27 18:34:37;;;;;;;8.95;6.53;;;;;;;15.94;35.30;97548.13;6183866;23;20009;-80
2022/03/27 18:37:05;;;;;;;13.25;7.28;;;;;;;15.87;35.46;97553.34;6183223;23;20033;-79
2022/03/27 18:39:33;;;;;;;11.38;6.90;;;;;;;15.81;35.53;97548.88;6183748;23;20017;-80
2022/03/27 18:42:01;;;;;;;11.50;7.68;;;;;;;15.76;35.88;97548.59;6183542;23;20032;-80
2022/03/27 18:44:31;;;;;;;11.82;7.35;;;;;;;15.74;36.12;97548.00;6183501;23;20026;-79
2022/03/27 18:46:59;;;;;;;11.20;7.35;;;;;;;15.69;36.06;97558.25;6182688;23;20018;-80
2022/03/27 18:49:27;;;;;;;16.10;8.60;;;;;;;15.64;36.37;97564.09;6183463;23;20010;-79
2022/03/27 18:51:55;;;;;;;12.93;7.55;;;;;;;15.62;36.39;97555.56;6183551;23;20058;-79
2022/03/27 18:54:22;;;;;;;10.50;6.78;;;;;;;15.60;36.80;97558.38;6183227;23;20045;-79
2022/03/27 18:56:51;;;;;;;12.10;7.05;;;;;;;15.55;36.61;97566.03;6183210;23;20014;-80
2022/03/27 18:59:18;;;;;;;9.70;6.10;;;;;;;15.51;36.75;97556.88;6183216;23;20033;-79
2022/03/27 19:01:48;;;;;;;12.57;6.85;;;;;;;15.44;36.88;97563.91;6183524;23;20073;-80
2022/03/27 19:04:16;;;;;;;15.07;8.00;;;;;;;15.35;36.83;97559.75;6183254;23;20018;-79
2022/03/27 19:06:44;;;;;;;10.73;7.07;;;;;;;15.29;36.59;97561.34;6182630;23;20001;-79
2022/03/27 19:09:12;;;;;;;9.63;6.93;;;;;;;15.25;36.96;97568.78;6182802;23;20014;-78
2022/03/27 19:11:40;;;;;;;14.93;6.63;;;;;;;15.15;37.12;97564.84;6182991;23;20025;-79
2022/03/27 19:14:08;;;;;;;11.10;7.38;;;;;;;15.08;37.24;97575.28;6183195;23;20063;-79
2022/03/27 19:16:36;;;;;;;10.85;7.25;;;;;;;15.02;37.47;97570.75;6182353;23;20065;-80
2022/03/27 19:19:05;;;;;;;16.02;7.47;;;;;;;14.95;37.54;97569.88;6183245;23;20069;-79
2022/03/27 19:21:46;;;;;;;10.23;7.18;;;;;;;14.88;37.73;97574.25;6183504;23;20009;-79
2022/03/27 19:24:14;;;;;;;11.90;7.43;;;;;;;14.80;37.54;97575.16;6182996;23;20006;-79
2022/03/27 19:26:42;;;;;;;12.63;7.82;;;;;;;14.73;37.27;97571.66;6182745;23;20065;-79
2022/03/27 19:29:10;;;;;;;12.00;8.13;;;;;;;14.66;37.57;97573.41;6182937;23;20025;-78
2022/03/27 19:31:37;;;;;;;12.52;6.80;;;;;;;14.60;37.82;97577.56;6183249;23;20016;-81
2022/03/27 19:34:07;;;;;;;16.75;7.28;;;;;;;14.56;37.79;97581.53;6183332;23;20016;-82
2022/03/27 19:36:35;;;;;;;10.90;7.10;;;;;;;14.54;37.89;97578.25;6182981;23;20029;-82
2022/03/27 19:39:03;;;;;;;13.55;7.82;;;;;;;14.53;37.79;97587.16;6183025;23;20006;-82
2022/03/27 19:41:31;;;;;;;12.02;8.10;;;;;;;14.53;37.43;97582.69;6183445;23;20013;-81
2022/03/27 19:43:59;;;;;;;11.25;6.55;;;;;;;14.52;37.70;97586.34;6183300;23;20010;-82
2022/03/27 19:46:27;;;;;;;12.02;7.78;;;;;;;14.50;37.43;97587.53;6182735;23;20061;-82
2022/03/27 19:48:54;;;;;;;11.35;6.70;;;;;;;14.45;37.56;97584.59;6183034;23;20013;-82
2022/03/27 19:51:23;;;;;;;15.77;8.35;;;;;;;14.39;37.74;97592.22;6183074;23;20009;-82
2022/03/27 19:53:51;;;;;;;13.02;6.53;;;;;;;14.33;37.46;97585.06;6183374;23;20040;-82
2022/03/27 19:56:20;;;;;;;14.18;7.68;;;;;;;14.26;37.96;97588.63;6182759;23;20061;-82
2022/03/27 19:58:48;;;;;;;11.65;7.20;;;;;;;14.18;37.79;97590.31;6183004;23;20029;-82
2022/03/27 20:01:16;;;;;;;10.50;6.28;;;;;;;14.11;38.04;97591.22;6183121;23;20029;-82
2022/03/27 20:03:43;;;;;;;12.02;7.07;;;;;;;14.04;38.15;97592.91;6183083;23;20020;-82
2022/03/27 20:06:12;;;;;;;10.82;6.18;;;;;;;13.97;38.15;97593.66;6182724;23;20010;-82
2022/03/27 20:08:41;;;;;;;12.50;6.95;;;;;;;13.90;38.56;97592.72;6183043;23;20045;-81
2022/03/27 20:11:09;;;;;;;10.77;6.97;;;;;;;13.86;38.74;97598.50;6183315;23;20082;-81
2022/03/27 20:13:37;;;;;;;11.70;6.55;;;;;;;13.84;39.06;97605.72;6183046;23;20053;-81
2022/03/27 20:16:06;;;;;;;15.18;7.72;;;;;;;13.81;39.20;97609.50;6181960;23;20373;-80
2022/03/27 20:18:34;;;;;;;13.23;7.53;;;;;;;13.76;39.39;97601.38;6182334;23;20010;-79
2022/03/27 20:21:02;;;;;;;12.75;6.95;;;;;;;13.69;39.11;97601.28;6182548;23;20086;-79
2022/03/27 20:23:31;;;;;;;14.25;7.20;;;;;;;13.60;39.18;97603.13;6182736;23;20077;-79
2022/03/27 20:26:00;;;;;;;12.75;8.07;;;;;;;13.51;39.61;97614.69;6181830;23;20005;-79
2022/03/27 20:28:28;;;;;;;12.75;8.10;;;;;;;13.40;39.41;97609.84;6182558;23;20056;-79
2022/03/27 20:30:56;;;;;;;15.25;7.93;;;;;;;13.29;39.67;97613.66;6182338;23;20025;-80
2022/03/27 20:33:24;;;;;;;11.13;7.18;;;;;;;13.22;39.87;97604.84;6181982;23;20022;-79
2022/03/27 20:35:52;;;;;;;13.27;7.45;;;;;;;13.14;39.83;97613.59;6181815;23;20021;-80
2022/03/27 20:38:19;;;;;;;11.88;6.22;;;;;;;13.08;39.97;97614.28;6182529;23;20060;-79
2022/03/27 20:40:49;;;;;;;11.05;6.20;;;;;;;13.06;40.41;97610.19;6182630;23;20028;-79
2022/03/27 20:43:18;;;;;;;11.50;6.78;;;;;;;13.06;40.56;97616.25;6182567;23;20037;-79
2022/03/27 20:45:50;;;;;;;10.20;6.55;;;;;;;13.07;40.31;97610.00;6181503;23;20009;-79
2022/03/27 20:48:17;;;;;;;9.43;6.47;;;;;;;13.07;40.31;97612.63;6182191;23;20001;-79
2022/03/27 20:50:47;;;;;;;10.52;6.60;;;;;;;13.06;40.33;97612.81;6182356;23;20065;-79
2022/03/27 20:53:15;;;;;;;11.90;7.03;;;;;;;13.02;40.62;97612.34;6182416;23;20053;-80
2022/03/27 20:55:44;;;;;;;12.38;6.85;;;;;;;12.97;41.04;97612.84;6182586;23;20061;-80
2022/03/27 20:58:18;;;;;;;11.23;6.57;;;;;;;12.92;41.13;97609.09;6182497;23;20074;-79
2022/03/27 21:00:47;;;;;;;11.43;6.57;;;;;;;12.87;41.17;97611.44;6182479;23;20053;-79
2022/03/27 21:03:15;;;;;;;12.98;7.07;;;;;;;12.81;41.41;97607.69;6184426;23;20021;-79
2022/03/27 21:05:43;;;;;;;9.85;6.55;;;;;;;12.75;41.84;97614.44;6184052;23;20036;-79
2022/03/27 21:08:10;;;;;;;12.23;7.32;;;;;;;12.70;42.24;97611.53;6184176;23;20065;-79
2022/03/27 21:10:39;;;;;;;8.27;5.78;;;;;;;12.69;42.61;97606.44;6183674;23;20024;-79
2022/03/27 21:13:07;;;;;;;11.85;7.00;;;;;;;12.67;42.90;97604.00;6183708;23;20028;-79
2022/03/27 21:15:41;;;;;;;11.57;7.88;;;;;;;12.65;42.95;97607.78;6183964;23;20065;-79
2022/03/27 21:18:09;;;;;;;9.63;6.90;;;;;;;12.57;42.84;97606.81;6183020;23;20048;-79
2022/03/27 21:20:37;;;;;;;12.35;6.97;;;;;;;12.49;42.82;97609.47;6183934;23;20452;-80
2022/03/27 21:23:05;;;;;;;11.07;6.40;;;;;;;12.47;43.89;97614.03;6183912;23;20057;-79
2022/03/27 21:25:32;;;;;;;12.10;7.32;;;;;;;12.49;43.50;97606.03;6184176;23;20028;-79
2022/03/27 21:28:05;;;;;;;;;;;;;;;12.51;43.13;97611.91;6183265;23;20009;-79
2022/03/27 21:30:33;;;;;;;11.05;6.65;;;;;;;12.55;43.31;97610.56;6183498;23;19944;-79
2022/03/27 21:33:02;;;;;;;14.75;7.03;;;;;;;12.64;43.59;97616.59;6183451;23;20057;-79
2022/03/27 21:35:30;;;;;;;9.10;5.90;;;;;;;12.68;43.31;97617.88;6183770;23;20073;-78
2022/03/27 21:37:58;;;;;;;10.90;8.80;;;;;;;12.65;43.54;97620.84;6182842;23;20064;-80
2022/03/27 21:40:26;;;;;;;11.75;7.00;;;;;;;12.61;43.52;97617.75;6183684;23;20028;-79
2022/03/27 21:42:54;;;;;;;10.63;6.75;;;;;;;12.52;43.46;97613.53;6183539;23;20073;-79
2022/03/27 21:45:21;;;;;;;10.93;6.93;;;;;;;12.39;43.53;97613.25;6183602;23;20060;-79
2022/03/27 21:47:49;;;;;;;11.00;6.40;;;;;;;12.29;44.14;97609.03;6182547;23;20224;-80
2022/03/27 21:50:18;;;;;;;11.60;7.15;;;;;;;12.29;44.46;97606.41;6183178;23;20065;-80
2022/03/27 21:52:48;;;;;;;13.98;8.00;;;;;;;12.28;44.70;97607.38;6183311;23;20009;-79
2022/03/27 21:55:15;;;;;;;11.23;7.43;;;;;;;12.32;44.85;97613.91;6183561;23;20072;-79
2022/03/27 21:57:43;;;;;;;11.90;6.82;;;;;;;12.34;44.23;97611.16;6182555;23;20028;-79
2022/03/27 22:00:37;;;;;;;9.32;6.05;;;;;;;12.30;44.63;97608.03;6183156;23;20061;-79
2022/03/27 22:03:05;;;;;;;13.88;7.18;;;;;;;12.25;44.47;97607.75;6183288;23;20017;-79
2022/03/27 22:05:35;;;;;;;9.23;7.03;;;;;;;12.23;44.56;97601.84;6183893;23;20057;-79
2022/03/27 22:08:02;;;;;;;9.73;6.68;;;;;;;12.18;44.35;97600.72;6182896;23;20017;-79
2022/03/27 22:10:32;;;;;;;10.32;6.45;;;;;;;12.11;44.60;97600.56;6183058;23;20078;-79
2022/03/27 22:13:00;;;;;;;10.02;6.82;;;;;;;12.05;44.54;97601.25;6182975;23;20017;-79
2022/03/27 22:15:28;;;;;;;7.88;6.07;;;;;;;11.99;44.72;97596.69;6182826;23;20005;-79
2022/03/27 22:17:56;;;;;;;11.13;6.05;;;;;;;11.90;44.47;97596.69;6182472;23;20021;-79
2022/03/27 22:20:34;;;;;;;11.32;6.47;;;;;;;11.77;45.10;97595.53;6182644;23;20420;-80
2022/03/27 22:23:03;;;;;;;15.48;7.55;;;;;;;11.70;44.63;97598.81;6182465;23;20081;-80
2022/03/27 22:25:31;;;;;;;11.73;7.45;;;;;;;11.64;44.37;97598.63;6183235;23;20029;-80
2022/03/27 22:27:59;;;;;;;10.05;6.50;;;;;;;11.61;45.23;97596.34;6182161;23;20068;-79
2022/03/27 22:30:27;;;;;;;11.40;7.80;;;;;;;11.64;44.95;97589.00;6182830;23;20022;-79
2022/03/27 22:32:56;;;;;;;13.00;6.65;;;;;;;11.63;45.00;97592.59;6182477;23;20006;-80
2022/03/27 22:35:24;;;;;;;11.27;7.43;;;;;;;11.60;44.48;97594.72;6182868;23;20081;-79
2022/03/27 22:37:54;;;;;;;15.13;8.18;;;;;;;11.57;43.96;97597.63;6181472;23;20082;-79
2022/03/27 22:40:24;;;;;;;10.60;7.53;;;;;;;11.54;44.81;97599.63;6182487;23;20041;-79
2022/03/27 22:42:52;;;;;;;10.75;7.15;;;;;;;11.56;44.59;97596.81;6182956;23;20025;-79
2022/03/27 22:45:20;;;;;;;11.00;6.97;;;;;;;11.55;43.88;97587.38;6182960;23;20029;-79
2022/03/27 22:47:48;;;;;;;14.57;7.53;;;;;;;11.50;43.66;97587.88;6181409;23;20024;-79
2022/03/27 22:50:15;;;;;;;13.93;8.48;;;;;;;11.41;43.36;97580.97;6182457;23;20010;-80
2022/03/27 22:52:43;;;;;;;12.00;7.57;;;;;;;11.24;43.69;97581.94;6182786;23;20031;-79
2022/03/27 22:55:12;;;;;;;14.13;7.72;;;;;;;11.07;43.82;97581.94;6182599;23;20028;-79
2022/03/27 22:57:40;;;;;;;18.27;7.90;;;;;;;10.92;44.02;97586.16;6181618;23;20020;-79
2022/03/27 23:00:11;;;;;;;13.80;7.75;;;;;;;10.82;44.50;97588.06;6182534;23;20025;-80
2022/03/27 23:02:40;;;;;;;14.50;8.25;;;;;;;10.77;44.59;97583.31;6182143;23;20532;-79
2022/03/27 23:05:08;;;;;;;14.48;7.53;;;;;;;10.72;44.64;97577.78;6182757;23;20044;-79
2022/03/27 23:07:36;;;;;;;11.98;7.78;;;;;;;10.67;44.92;97570.44;6181981;23;20076;-80
2022/03/27 23:10:05;;;;;;;15.93;7.68;;;;;;;10.60;45.59;97568.59;6182271;23;20014;-80
2022/03/27 23:12:34;;;;;;;14.32;7.68;;;;;;;10.55;45.48;97574.28;6181725;23;20028;-80
2022/03/27 23:15:03;;;;;;;12.98;7.97;;;;;;;10.50;45.50;97566.94;6181205;23;20013;-80
2022/03/27 23:17:31;;;;;;;11.27;7.43;;;;;;;10.46;45.98;97564.78;6181153;23;20044;-80
2022/03/27 23:19:58;;;;;;;12.18;8.18;;;;;;;10.45;46.12;97568.38;6182332;23;20025;-80
2022/03/27 23:22:26;;;;;;;11.40;7.43;;;;;;;10.48;46.16;97562.84;6182238;23;20025;-79
2022/03/27 23:24:54;;;;;;;13.38;7.80;;;;;;;10.58;45.89;97560.91;6182116;23;20040;-80
2022/03/27 23:27:21;;;;;;;11.48;6.97;;;;;;;10.66;45.50;97566.16;6181490;23;20088;-80
2022/03/27 23:29:50;;;;;;;12.85;7.35;;;;;;;10.62;45.77;97561.41;6182033;23;20070;-80
2022/03/27 23:32:18;;;;;;;14.05;7.43;;;;;;;10.55;46.36;97550.81;6182235;23;20053;-81
2022/03/27 23:34:46;;;;;;;11.77;7.65;;;;;;;10.47;46.65;97551.59;6182586;23;20012;-79
2022/03/27 23:37:14;;;;;;;12.35;7.28;;;;;;;10.44;47.17;97548.47;6181682;23;20026;-79
2022/03/27 23:39:42;;;;;;;14.65;7.95;;;;;;;10.42;47.42;97550.44;6183049;23;20049;-80
2022/03/27 23:42:10;;;;;;;13.05;8.00;;;;;;;10.39;47.59;97545.53;6182897;23;20012;-79
2022/03/27 23:44:37;;;;;;;12.02;7.85;;;;;;;10.37;47.72;97552.72;6182751;23;20028;-80
2022/03/27 23:47:08;;;;;;;15.93;9.02;;;;;;;10.37;48.30;97553.50;6181818;23;20009;-79
2022/03/27 23:49:36;;;;;;;17.40;7.82;;;;;;;10.38;47.77;97549.09;6182279;23;20010;-80
2022/03/27 23:52:05;;;;;;;14.00;8.15;;;;;;;10.40;48.04;97544.56;6182232;23;20032;-79
2022/03/27 23:54:33;;;;;;;12.70;7.85;;;;;;;10.38;48.39;97546.50;6182251;23;20013;-80
2022/03/27 23:57:01;;;;;;;11.27;7.40;;;;;;;10.39;49.19;97542.94;6181346;23;20496;-80
2022/03/27 23:59:29;;;;;;;14.40;7.40;;;;;;;10.48;48.47;97539.38;6181889;23;20069;-79
